createdAt,value
2023-02-13T00:00:09.487Z,102306.19
2023-02-13T00:05:12.498Z,102299.91
2023-02-13T00:10:16.808Z,102295.91
2023-02-13T00:15:19.884Z,102291.88
2023-02-13T00:20:22.864Z,102295.78
2023-02-13T00:25:26.972Z,102290.31
2023-02-13T00:30:29.737Z,102285.03
2023-02-13T00:35:32.544Z,102283.19
2023-02-13T00:40:36.991Z,102282.13
2023-02-13T00:45:39.863Z,102285.47
2023-02-13T00:50:42.598Z,102288.44
2023-02-13T00:55:47.308Z,102283.03
2023-02-13T01:00:52.003Z,102272.66
2023-02-13T01:05:54.775Z,102286.44
2023-02-13T01:10:59.544Z,102287.56
2023-02-13T01:16:02.992Z,102289.31
2023-02-13T01:21:07.753Z,102278.28
2023-02-13T01:26:18.202Z,102281.16
2023-02-13T01:31:21.565Z,102279.47
2023-02-13T01:36:27.089Z,102277.53
2023-02-13T01:41:32.460Z,102274.50
2023-02-13T01:46:39.629Z,102269.88
2023-02-13T01:51:43.620Z,102276.91
2023-02-13T01:56:51.072Z,102279.16
2023-02-13T02:01:55.278Z,102273.63
2023-02-13T02:07:05.925Z,102266.31
2023-02-13T02:12:19.303Z,102253.94
2023-02-13T02:17:25.450Z,102263.72
2023-02-13T02:23:19.962Z,102264.56
2023-02-13T02:29:02.381Z,102246.28
2023-02-13T02:34:22.316Z,102255.94
2023-02-13T02:39:35.015Z,102252.56
2023-02-13T02:44:46.310Z,102253.44
2023-02-13T02:50:02.140Z,102254.22
2023-02-13T02:55:12.337Z,102249.09
2023-02-13T03:00:46.683Z,102258.03
2023-02-13T03:06:14.098Z,102255.44
2023-02-13T03:11:34.499Z,102260.56
2023-02-13T03:16:54.915Z,102260.53
2023-02-13T03:22:20.614Z,102254.50
2023-02-13T03:27:53.790Z,102264.16
2023-02-13T03:33:09.284Z,102257.16
2023-02-13T03:38:19.802Z,102258.91
2023-02-13T03:43:23.672Z,102257.00
2023-02-13T03:48:48.141Z,102267.69
2023-02-13T03:53:57.008Z,102270.38
2023-02-13T03:59:17.599Z,102274.75
2023-02-13T04:04:27.632Z,102278.41
2023-02-13T04:09:33.945Z,102269.53
2023-02-13T04:14:40.983Z,102274.03
2023-02-13T04:19:43.833Z,102278.31
2023-02-13T04:24:48.630Z,102268.63
2023-02-13T04:29:51.397Z,102276.03
2023-02-13T04:34:54.278Z,102266.03
2023-02-13T04:39:58.420Z,102264.16
2023-02-13T04:45:01.335Z,102264.22
2023-02-13T04:50:04.493Z,102265.97
2023-02-13T04:55:09.115Z,102258.91
2023-02-13T05:00:12.829Z,102267.09
2023-02-13T05:05:15.707Z,102266.16
2023-02-13T05:10:20.208Z,102260.75
2023-02-13T05:15:23.638Z,102262.66
2023-02-13T05:20:26.529Z,102271.81
2023-02-13T05:25:31.156Z,102274.41
2023-02-13T05:30:33.924Z,102266.38
2023-02-13T05:35:36.759Z,102270.75
2023-02-13T05:40:40.849Z,102264.56
2023-02-13T05:45:43.686Z,102263.72
2023-02-13T05:50:47.622Z,102265.59
2023-02-13T05:55:52.263Z,102263.09
2023-02-13T06:00:57.424Z,102271.38
2023-02-13T06:06:01.199Z,102271.47
2023-02-13T06:11:05.916Z,102272.53
2023-02-13T06:16:09.134Z,102270.97
2023-02-13T06:21:12.136Z,102274.66
2023-02-13T06:26:16.325Z,102282.00
2023-02-13T06:31:19.259Z,102284.88
2023-02-13T06:36:22.114Z,102279.59
2023-02-13T06:41:26.243Z,102277.97
2023-02-13T06:46:29.203Z,102288.84
2023-02-13T06:51:32.028Z,102291.75
2023-02-13T06:56:36.117Z,102291.91
2023-02-13T07:01:38.863Z,102279.59
2023-02-13T07:06:41.631Z,102287.00
2023-02-13T07:11:45.751Z,102292.56
2023-02-13T07:16:48.745Z,102309.59
2023-02-13T07:21:51.580Z,102306.19
2023-02-13T07:26:55.689Z,102309.94
2023-02-13T07:31:58.523Z,102314.50
2023-02-13T07:37:01.274Z,102320.06
2023-02-13T07:42:05.841Z,102327.38
2023-02-13T07:47:08.738Z,102320.28
2023-02-13T07:52:11.522Z,102316.75
2023-02-13T07:57:15.827Z,102321.34
2023-02-13T08:02:18.616Z,102320.56
2023-02-13T08:07:21.423Z,102319.69
2023-02-13T08:12:25.755Z,102329.75
2023-02-13T08:17:28.586Z,102329.81
2023-02-13T08:22:31.391Z,102330.81
2023-02-13T08:27:35.549Z,102330.81
2023-02-13T08:32:53.031Z,102329.03
2023-02-13T08:37:56.781Z,102324.59
2023-02-13T08:43:06.619Z,102331.84
2023-02-13T08:48:09.462Z,102332.81
2023-02-13T08:53:12.269Z,102340.03
2023-02-13T08:58:16.427Z,102338.34
2023-02-13T09:03:19.238Z,102339.28
2023-02-13T09:08:22.011Z,102339.31
2023-02-13T09:13:26.234Z,102350.88
2023-02-13T09:18:29.496Z,102363.16
2023-02-13T09:23:33.076Z,102367.88
2023-02-13T09:28:37.959Z,102365.72
2023-02-13T09:33:41.018Z,102357.03
2023-02-13T09:38:44.952Z,102355.09
2023-02-13T09:43:52.060Z,102353.47
2023-02-13T09:48:57.676Z,102356.66
2023-02-13T09:54:02.571Z,102362.19
2023-02-13T09:59:21.136Z,102366.22
2023-02-13T10:04:32.903Z,102364.03
2023-02-13T10:09:41.489Z,102366.25
2023-02-13T10:14:55.884Z,102355.19
2023-02-13T10:20:03.886Z,102349.56
2023-02-13T10:25:13.377Z,102349.44
2023-02-13T10:30:23.462Z,102334.91
2023-02-13T10:35:30.721Z,102338.34
2023-02-13T10:40:41.537Z,102346.31
2023-02-13T10:45:58.245Z,102343.50
2023-02-13T10:51:08.328Z,102328.16
2023-02-13T10:56:26.286Z,102324.44
2023-02-13T11:01:35.991Z,102315.34
2023-02-13T11:06:43.550Z,102309.03
2023-02-13T11:11:46.456Z,102308.88
2023-02-13T11:16:57.047Z,102298.00
2023-02-13T11:22:04.694Z,102297.94
2023-02-13T11:27:12.888Z,102295.13
2023-02-13T11:32:24.309Z,102294.22
2023-02-13T11:37:30.016Z,102292.28
2023-02-13T11:42:36.507Z,102293.13
2023-02-13T11:47:43.175Z,102294.00
2023-02-13T11:52:57.465Z,102284.09
2023-02-13T11:58:02.375Z,102281.44
2023-02-13T12:03:26.964Z,102290.47
2023-02-13T12:08:30.974Z,102300.28
2023-02-13T12:13:38.933Z,102302.09
2023-02-13T12:18:47.277Z,102300.28
2023-02-13T12:23:58.819Z,102285.94
2023-02-13T12:29:17.325Z,102290.53
2023-02-13T12:34:58.825Z,102283.34
2023-02-13T12:40:24.678Z,102282.06
2023-02-13T12:45:38.521Z,102263.22
2023-02-13T12:50:58.360Z,102252.47
2023-02-13T12:56:27.113Z,102246.19
2023-02-13T13:01:52.183Z,102251.81
2023-02-13T13:07:30.291Z,102245.97
2023-02-13T13:12:51.030Z,102239.28
2023-02-13T13:18:05.260Z,102237.16
2023-02-13T13:23:15.657Z,102238.78
2023-02-13T13:28:23.518Z,102237.66
2023-02-13T13:33:28.114Z,102234.81
2023-02-13T13:38:43.885Z,102234.75
2023-02-13T13:44:04.775Z,102241.81
2023-02-13T13:49:19.238Z,102240.00
2023-02-13T13:54:35.797Z,102233.72
2023-02-13T14:00:01.002Z,102238.16
2023-02-13T14:05:11.450Z,102239.84
2023-02-13T14:11:03.352Z,102233.38
2023-02-13T14:16:10.252Z,102233.22
2023-02-13T14:21:17.883Z,102234.72
2023-02-13T14:26:31.315Z,102240.91
2023-02-13T14:31:39.207Z,102238.09
2023-02-13T14:36:46.241Z,102234.44
2023-02-13T14:42:01.547Z,102235.25
2023-02-13T14:47:13.911Z,102228.00
2023-02-13T14:52:21.595Z,102228.81
2023-02-13T14:57:30.092Z,102220.69
2023-02-13T15:02:38.952Z,102213.44
2023-02-13T15:07:48.328Z,102217.03
2023-02-13T15:12:59.379Z,102213.31
2023-02-13T15:18:08.837Z,102198.69
2023-02-13T15:23:24.523Z,102190.34
2023-02-13T15:28:28.161Z,102194.47
2023-02-13T15:33:38.296Z,102188.63
2023-02-13T15:38:42.680Z,102183.03
2023-02-13T15:43:48.459Z,102190.81
2023-02-13T15:48:51.790Z,102186.13
2023-02-13T15:53:58.462Z,102175.16
2023-02-13T15:59:02.616Z,102173.88
2023-02-13T16:04:10.391Z,102168.38
2023-02-13T16:09:27.369Z,102166.38
2023-02-13T16:14:31.788Z,102159.84
2023-02-13T16:19:42.848Z,102160.66
2023-02-13T16:24:51.545Z,102165.00
2023-02-13T16:29:59.019Z,102160.28
2023-02-13T16:35:27.209Z,102168.16
2023-02-13T16:40:42.846Z,102170.84
2023-02-13T16:45:45.943Z,102179.34
2023-02-13T16:50:56.505Z,102182.66
2023-02-13T16:56:03.594Z,102184.34
2023-02-13T17:01:06.952Z,102187.28
2023-02-13T17:06:11.585Z,102191.53
2023-02-13T17:11:20.409Z,102182.75
2023-02-13T17:16:23.224Z,102189.38
2023-02-13T17:21:25.998Z,102183.84
2023-02-13T17:26:30.182Z,102197.47
2023-02-13T17:31:33.063Z,102197.94
2023-02-13T17:36:36.169Z,102187.28
2023-02-13T17:41:43.000Z,102174.94
2023-02-13T17:46:45.981Z,102183.78
2023-02-13T17:51:48.847Z,102186.47
2023-02-13T17:56:53.074Z,102181.00
2023-02-13T18:01:55.873Z,102181.00
2023-02-13T18:06:59.369Z,102176.41
2023-02-13T18:12:06.020Z,102178.97
2023-02-13T18:17:09.123Z,102179.75
2023-02-13T18:22:12.587Z,102184.25
2023-02-13T18:27:17.748Z,102160.78
2023-02-13T18:32:20.617Z,102155.66
2023-02-13T18:37:23.493Z,102146.31
2023-02-13T18:42:28.469Z,102153.19
2023-02-13T18:47:31.353Z,102164.22
2023-02-13T18:52:35.368Z,102160.41
2023-02-13T18:57:43.376Z,102157.91
2023-02-13T19:02:46.250Z,102160.69
2023-02-13T19:07:49.253Z,102171.41
2023-02-13T19:12:53.499Z,102166.91
2023-02-13T19:17:57.482Z,102162.13
2023-02-13T19:23:00.321Z,102168.19
2023-02-13T19:28:05.489Z,102169.94
2023-02-13T19:33:08.412Z,102166.28
2023-02-13T19:38:11.647Z,102171.63
2023-02-13T19:43:15.841Z,102160.03
2023-02-13T19:48:18.781Z,102160.09
2023-02-13T19:53:21.519Z,102158.28
2023-02-13T19:58:25.678Z,102145.78
2023-02-13T20:03:28.436Z,102143.50
2023-02-13T20:08:31.239Z,102150.44
2023-02-13T20:13:35.403Z,102151.13
2023-02-13T20:18:39.412Z,102160.03
2023-02-13T20:23:43.198Z,102164.06
2023-02-13T20:28:47.941Z,102156.72
2023-02-13T20:33:52.122Z,102147.41
2023-02-13T20:38:56.594Z,102158.75
2023-02-13T20:44:02.112Z,102159.34
2023-02-13T20:49:05.165Z,102156.06
2023-02-13T20:54:08.026Z,102150.84
2023-02-13T20:59:12.682Z,102152.78
2023-02-13T21:04:19.077Z,102160.78
2023-02-13T21:09:21.956Z,102156.09
2023-02-13T21:14:26.371Z,102173.50
2023-02-13T21:19:31.153Z,102170.63
2023-02-13T21:24:33.948Z,102166.81
2023-02-13T21:29:39.044Z,102171.78
2023-02-13T21:34:43.229Z,102174.28
2023-02-13T21:39:46.057Z,102177.00
2023-02-13T21:44:50.576Z,102178.84
2023-02-13T21:49:53.336Z,102185.28
2023-02-13T21:54:56.085Z,102190.47
2023-02-13T22:00:02.071Z,102187.50
2023-02-13T22:05:15.308Z,102178.72
2023-02-13T22:10:18.432Z,102189.56
2023-02-13T22:15:22.708Z,102194.44
2023-02-13T22:20:26.514Z,102192.75
2023-02-13T22:25:29.345Z,102194.63
2023-02-13T22:30:33.605Z,102198.28
2023-02-13T22:35:38.694Z,102200.97
2023-02-13T22:40:41.633Z,102198.56
2023-02-13T22:45:45.906Z,102204.06
2023-02-13T22:50:48.793Z,102205.84
2023-02-13T22:55:51.525Z,102212.16
2023-02-13T23:00:55.960Z,102210.34
2023-02-13T23:05:58.752Z,102208.59
2023-02-13T23:11:24.060Z,102211.38
2023-02-13T23:16:49.086Z,102200.50
2023-02-13T23:21:52.130Z,102205.22
2023-02-13T23:26:54.962Z,102192.59
2023-02-13T23:31:59.309Z,102204.22
2023-02-13T23:37:02.216Z,102205.16
2023-02-13T23:42:05.339Z,102194.31
2023-02-13T23:47:09.520Z,102204.28
2023-02-13T23:52:12.322Z,102203.63
2023-02-13T23:57:15.370Z,102212.50
